sensor_id;sensor_type;location;lat;lon;timestamp;pressure;altitude;pressure_sealevel;temperature;humidity
80648;BME280;70012;0.000;0.000;2023-07-20T00:01:51;100529.84;;;17.63;66.72
80648;BME280;70012;0.000;0.000;2023-07-20T00:04:18;100523.25;;;17.58;67.01
80648;BME280;70012;0.000;0.000;2023-07-20T00:06:44;100529.38;;;17.55;66.74
80648;BME280;70012;0.000;0.000;2023-07-20T00:09:11;100528.31;;;17.51;67.16
80648;BME280;70012;0.000;0.000;2023-07-20T00:11:38;100526.19;;;17.43;67.77
80648;BME280;70012;0.000;0.000;2023-07-20T00:14:05;100532.41;;;17.35;68.17
80648;BME280;70012;0.000;0.000;2023-07-20T00:16:32;100523.97;;;17.21;68.96
80648;BME280;70012;0.000;0.000;2023-07-20T00:18:59;100529.25;;;17.17;69.61
80648;BME280;70012;0.000;0.000;2023-07-20T00:21:26;100526.56;;;17.12;70.08
80648;BME280;70012;0.000;0.000;2023-07-20T00:23:52;100530.72;;;17.09;70.74
80648;BME280;70012;0.000;0.000;2023-07-20T00:26:19;100520.53;;;17.05;70.96
80648;BME280;70012;0.000;0.000;2023-07-20T00:28:49;100515.84;;;17.05;71.93
80648;BME280;70012;0.000;0.000;2023-07-20T00:31:19;100523.38;;;17.00;72.25
80648;BME280;70012;0.000;0.000;2023-07-20T00:33:45;100512.63;;;16.93;72.40
80648;BME280;70012;0.000;0.000;2023-07-20T00:36:12;100513.78;;;16.92;73.18
80648;BME280;70012;0.000;0.000;2023-07-20T00:38:38;100522.06;;;16.87;72.93
80648;BME280;70012;0.000;0.000;2023-07-20T00:41:05;100518.50;;;16.86;73.08
80648;BME280;70012;0.000;0.000;2023-07-20T00:43:32;100519.66;;;16.80;73.13
80648;BME280;70012;0.000;0.000;2023-07-20T00:45:58;100517.69;;;16.80;73.87
80648;BME280;70012;0.000;0.000;2023-07-20T00:48:25;100505.88;;;16.75;73.50
80648;BME280;70012;0.000;0.000;2023-07-20T00:50:52;100512.47;;;16.79;73.84
80648;BME280;70012;0.000;0.000;2023-07-20T00:53:19;100520.22;;;16.77;73.75
80648;BME280;70012;0.000;0.000;2023-07-20T00:55:46;100513.88;;;16.76;74.10
80648;BME280;70012;0.000;0.000;2023-07-20T00:58:13;100520.81;;;16.74;74.33
80648;BME280;70012;0.000;0.000;2023-07-20T01:00:40;100522.47;;;16.75;74.35
80648;BME280;70012;0.000;0.000;2023-07-20T01:03:06;100522.47;;;16.75;74.08
80648;BME280;70012;0.000;0.000;2023-07-20T01:05:40;100522.47;;;16.75;74.55
80648;BME280;70012;0.000;0.000;2023-07-20T01:08:16;100515.28;;;16.74;74.25
80648;BME280;70012;0.000;0.000;2023-07-20T01:10:51;100516.41;;;16.73;74.38
80648;BME280;70012;0.000;0.000;2023-07-20T01:13:21;100514.22;;;16.70;74.81
80648;BME280;70012;0.000;0.000;2023-07-20T01:16:00;100513.41;;;16.69;74.95
80648;BME280;70012;0.000;0.000;2023-07-20T01:18:27;100518.13;;;16.69;75.01
80648;BME280;70012;0.000;0.000;2023-07-20T01:21:05;100517.03;;;16.64;75.10
80648;BME280;70012;0.000;0.000;2023-07-20T01:24:32;100516.53;;;16.57;75.19
80648;BME280;70012;0.000;0.000;2023-07-20T01:29:46;100524.31;;;16.55;75.65
80648;BME280;70012;0.000;0.000;2023-07-20T01:32:23;100528.19;;;16.54;75.37
80648;BME280;70012;0.000;0.000;2023-07-20T01:34:52;100529.00;;;16.55;75.36
80648;BME280;70012;0.000;0.000;2023-07-20T01:37:20;100514.13;;;16.51;75.55
80648;BME280;70012;0.000;0.000;2023-07-20T01:39:48;100505.56;;;16.47;75.56
80648;BME280;70012;0.000;0.000;2023-07-20T01:42:15;100508.59;;;16.51;75.41
80648;BME280;70012;0.000;0.000;2023-07-20T01:44:42;100502.75;;;16.52;75.58
80648;BME280;70012;0.000;0.000;2023-07-20T01:47:09;100504.47;;;16.48;75.96
80648;BME280;70012;0.000;0.000;2023-07-20T01:49:35;100508.34;;;16.47;75.83
80648;BME280;70012;0.000;0.000;2023-07-20T01:52:02;100513.31;;;16.45;75.84
80648;BME280;70012;0.000;0.000;2023-07-20T01:54:29;100515.53;;;16.43;75.42
80648;BME280;70012;0.000;0.000;2023-07-20T01:56:55;100506.75;;;16.41;75.97
80648;BME280;70012;0.000;0.000;2023-07-20T01:59:22;100495.13;;;16.39;76.05
80648;BME280;70012;0.000;0.000;2023-07-20T02:01:48;100496.84;;;16.35;75.77
80648;BME280;70012;0.000;0.000;2023-07-20T02:04:15;100503.53;;;16.28;75.75
80648;BME280;70012;0.000;0.000;2023-07-20T02:06:42;100502.44;;;16.24;75.76
80648;BME280;70012;0.000;0.000;2023-07-20T02:09:09;100499.72;;;16.19;75.57
80648;BME280;70012;0.000;0.000;2023-07-20T02:11:35;100503.59;;;16.18;75.61
80648;BME280;70012;0.000;0.000;2023-07-20T02:14:02;100499.22;;;16.12;75.25
80648;BME280;70012;0.000;0.000;2023-07-20T02:16:29;100499.81;;;16.09;75.57
80648;BME280;70012;0.000;0.000;2023-07-20T02:18:55;100502.00;;;16.07;75.46
80648;BME280;70012;0.000;0.000;2023-07-20T02:21:23;100497.91;;;16.04;75.54
80648;BME280;70012;0.000;0.000;2023-07-20T02:23:50;100493.78;;;15.96;75.63
80648;BME280;70012;0.000;0.000;2023-07-20T02:26:17;100492.16;;;15.95;75.60
80648;BME280;70012;0.000;0.000;2023-07-20T02:28:43;100484.19;;;15.89;75.59
80648;BME280;70012;0.000;0.000;2023-07-20T02:31:10;100489.16;;;15.87;75.66
80648;BME280;70012;0.000;0.000;2023-07-20T02:33:36;100490.00;;;15.82;75.73
80648;BME280;70012;0.000;0.000;2023-07-20T02:36:03;100485.03;;;15.79;76.07
80648;BME280;70012;0.000;0.000;2023-07-20T02:38:30;100482.31;;;15.74;75.79
80648;BME280;70012;0.000;0.000;2023-07-20T02:40:56;100488.38;;;15.71;75.68
80648;BME280;70012;0.000;0.000;2023-07-20T02:43:23;100483.47;;;15.62;76.15
80648;BME280;70012;0.000;0.000;2023-07-20T02:45:50;100490.66;;;15.58;76.12
80648;BME280;70012;0.000;0.000;2023-07-20T02:48:17;100497.31;;;15.52;76.12
80648;BME280;70012;0.000;0.000;2023-07-20T02:50:43;100500.09;;;15.47;76.27
80648;BME280;70012;0.000;0.000;2023-07-20T02:53:10;100493.78;;;15.41;76.56
80648;BME280;70012;0.000;0.000;2023-07-20T02:55:37;100494.88;;;15.40;76.50
80648;BME280;70012;0.000;0.000;2023-07-20T02:58:03;100494.88;;;15.40;76.10
80648;BME280;70012;0.000;0.000;2023-07-20T03:00:30;100498.47;;;15.41;76.62
80648;BME280;70012;0.000;0.000;2023-07-20T03:02:56;100498.75;;;15.39;76.23
80648;BME280;70012;0.000;0.000;2023-07-20T03:05:23;100488.28;;;15.36;76.26
80648;BME280;70012;0.000;0.000;2023-07-20T03:07:55;100502.38;;;15.34;76.42
80648;BME280;70012;0.000;0.000;2023-07-20T03:10:22;100493.28;;;15.29;76.83
80648;BME280;70012;0.000;0.000;2023-07-20T03:12:49;100501.56;;;15.29;76.77
80648;BME280;70012;0.000;0.000;2023-07-20T03:15:15;100503.50;;;15.28;76.64
80648;BME280;70012;0.000;0.000;2023-07-20T03:17:42;100502.38;;;15.29;76.72
80648;BME280;70012;0.000;0.000;2023-07-20T03:20:09;100505.41;;;15.28;76.82
80648;BME280;70012;0.000;0.000;2023-07-20T03:22:36;100503.22;;;15.25;76.74
80648;BME280;70012;0.000;0.000;2023-07-20T03:25:03;100506.81;;;15.25;76.51
80648;BME280;70012;0.000;0.000;2023-07-20T03:27:30;100507.91;;;15.24;76.79
80648;BME280;70012;0.000;0.000;2023-07-20T03:29:57;100511.75;;;15.23;76.78
80648;BME280;70012;0.000;0.000;2023-07-20T03:32:23;100517.84;;;15.20;76.84
80648;BME280;70012;0.000;0.000;2023-07-20T03:34:50;100519.78;;;15.19;76.64
80648;BME280;70012;0.000;0.000;2023-07-20T03:37:16;100509.06;;;15.13;76.51
80648;BME280;70012;0.000;0.000;2023-07-20T03:39:43;100523.38;;;15.10;76.52
80648;BME280;70012;0.000;0.000;2023-07-20T03:42:10;100520.34;;;15.06;76.70
80648;BME280;70012;0.000;0.000;2023-07-20T03:44:36;100523.97;;;15.07;77.04
80648;BME280;70012;0.000;0.000;2023-07-20T03:47:03;100525.59;;;15.02;76.68
80648;BME280;70012;0.000;0.000;2023-07-20T03:49:31;100525.88;;;15.01;77.16
80648;BME280;70012;0.000;0.000;2023-07-20T03:51:57;100522.56;;;14.99;77.37
80648;BME280;70012;0.000;0.000;2023-07-20T03:54:24;100524.25;;;14.95;77.82
80648;BME280;70012;0.000;0.000;2023-07-20T03:56:51;100521.22;;;14.96;77.98
80648;BME280;70012;0.000;0.000;2023-07-20T03:59:17;100522.56;;;14.99;77.74
80648;BME280;70012;0.000;0.000;2023-07-20T04:01:44;100527.28;;;14.98;77.79
80648;BME280;70012;0.000;0.000;2023-07-20T04:04:11;100524.22;;;15.00;77.96
80648;BME280;70012;0.000;0.000;2023-07-20T04:06:38;100525.88;;;15.01;78.06
80648;BME280;70012;0.000;0.000;2023-07-20T04:09:04;100517.91;;;14.99;77.62
80648;BME280;70012;0.000;0.000;2023-07-20T04:11:33;100519.56;;;15.00;77.74
80648;BME280;70012;0.000;0.000;2023-07-20T04:14:00;100516.25;;;14.98;78.01
80648;BME280;70012;0.000;0.000;2023-07-20T04:16:27;100514.59;;;14.97;77.81
80648;BME280;70012;0.000;0.000;2023-07-20T04:18:57;100517.34;;;15.02;77.44
80648;BME280;70012;0.000;0.000;2023-07-20T04:21:27;100517.63;;;15.01;77.42
80648;BME280;70012;0.000;0.000;2023-07-20T04:23:53;100521.22;;;15.01;77.54
80648;BME280;70012;0.000;0.000;2023-07-20T04:26:20;100525.06;;;15.00;77.02
80648;BME280;70012;0.000;0.000;2023-07-20T04:28:47;100539.38;;;15.02;77.55
80648;BME280;70012;0.000;0.000;2023-07-20T04:31:15;100541.03;;;15.03;77.03
80648;BME280;70012;0.000;0.000;2023-07-20T04:33:42;100538.28;;;15.09;76.84
80648;BME280;70012;0.000;0.000;2023-07-20T04:36:09;100537.47;;;15.08;77.21
80648;BME280;70012;0.000;0.000;2023-07-20T04:38:36;100541.59;;;15.11;77.02
80648;BME280;70012;0.000;0.000;2023-07-20T04:41:02;100542.97;;;15.18;76.93
80648;BME280;70012;0.000;0.000;2023-07-20T04:43:29;100550.94;;;15.20;76.90
80648;BME280;70012;0.000;0.000;2023-07-20T04:45:56;100558.38;;;15.25;76.92
80648;BME280;70012;0.000;0.000;2023-07-20T04:48:23;100557.81;;;15.28;76.43
80648;BME280;70012;0.000;0.000;2023-07-20T04:50:50;100548.69;;;15.32;76.95
80648;BME280;70012;0.000;0.000;2023-07-20T04:53:17;100557.25;;;15.36;76.46
80648;BME280;70012;0.000;0.000;2023-07-20T04:55:50;100549.25;;;15.40;76.04
80648;BME280;70012;0.000;0.000;2023-07-20T04:58:19;100554.72;;;15.45;76.14
80648;BME280;70012;0.000;0.000;2023-07-20T05:00:48;100556.94;;;15.48;76.01
80648;BME280;70012;0.000;0.000;2023-07-20T05:03:15;100561.34;;;15.54;76.10
80648;BME280;70012;0.000;0.000;2023-07-20T05:05:42;100561.59;;;15.58;75.99
80648;BME280;70012;0.000;0.000;2023-07-20T05:08:09;100559.88;;;15.67;76.21
80648;BME280;70012;0.000;0.000;2023-07-20T05:10:36;100550.47;;;15.73;75.75
80648;BME280;70012;0.000;0.000;2023-07-20T05:13:02;100542.44;;;15.77;75.57
80648;BME280;70012;0.000;0.000;2023-07-20T05:15:29;100553.22;;;15.83;75.56
80648;BME280;70012;0.000;0.000;2023-07-20T05:17:55;100562.28;;;15.89;75.40
80648;BME280;70012;0.000;0.000;2023-07-20T05:20:22;100551.75;;;15.96;74.85
80648;BME280;70012;0.000;0.000;2023-07-20T05:22:49;100551.16;;;16.05;74.83
80648;BME280;70012;0.000;0.000;2023-07-20T05:25:16;100556.41;;;16.06;74.43
80648;BME280;70012;0.000;0.000;2023-07-20T05:27:45;100559.72;;;16.08;74.39
80648;BME280;70012;0.000;0.000;2023-07-20T05:30:12;100558.88;;;16.13;74.11
80648;BME280;70012;0.000;0.000;2023-07-20T05:32:39;100566.00;;;16.19;73.77
80648;BME280;70012;0.000;0.000;2023-07-20T05:35:06;100557.94;;;16.28;73.88
80648;BME280;70012;0.000;0.000;2023-07-20T05:37:33;100560.41;;;16.29;73.58
80648;BME280;70012;0.000;0.000;2023-07-20T05:40:00;100557.03;;;16.38;73.44
80648;BME280;70012;0.000;0.000;2023-07-20T05:42:27;100566.28;;;16.57;73.24
80648;BME280;70012;0.000;0.000;2023-07-20T05:44:53;100566.16;;;16.73;72.28
80648;BME280;70012;0.000;0.000;2023-07-20T05:47:21;100564.22;;;16.73;72.21
80648;BME280;70012;0.000;0.000;2023-07-20T05:49:48;100566.72;;;16.70;71.89
80648;BME280;70012;0.000;0.000;2023-07-20T05:52:15;100567.28;;;16.72;72.07
80648;BME280;70012;0.000;0.000;2023-07-20T05:54:41;100575.03;;;16.70;72.25
80648;BME280;70012;0.000;0.000;2023-07-20T05:57:08;100575.00;;;16.75;72.17
80648;BME280;70012;0.000;0.000;2023-07-20T05:59:34;100574.91;;;16.85;71.77
80648;BME280;70012;0.000;0.000;2023-07-20T06:02:02;100570.44;;;16.89;71.65
80648;BME280;70012;0.000;0.000;2023-07-20T06:04:28;100575.41;;;16.92;71.51
80648;BME280;70012;0.000;0.000;2023-07-20T06:06:55;100576.78;;;16.95;71.51
80648;BME280;70012;0.000;0.000;2023-07-20T06:09:22;100585.84;;;17.01;71.49
80648;BME280;70012;0.000;0.000;2023-07-20T06:11:48;100583.59;;;17.03;71.29
80648;BME280;70012;0.000;0.000;2023-07-20T06:14:15;100583.03;;;17.06;71.48
80648;BME280;70012;0.000;0.000;2023-07-20T06:16:41;100579.53;;;17.24;70.83
80648;BME280;70012;0.000;0.000;2023-07-20T06:19:08;100586.63;;;17.36;70.32
80648;BME280;70012;0.000;0.000;2023-07-20T06:21:38;100589.19;;;17.51;69.84
80648;BME280;70012;0.000;0.000;2023-07-20T06:24:05;100576.44;;;17.55;69.82
80648;BME280;70012;0.000;0.000;2023-07-20T06:26:31;100569.28;;;17.73;69.05
80648;BME280;70012;0.000;0.000;2023-07-20T06:29:08;100582.91;;;18.13;68.05
80648;BME280;70012;0.000;0.000;2023-07-20T06:31:35;100573.69;;;18.37;67.39
80648;BME280;70012;0.000;0.000;2023-07-20T06:34:03;100574.66;;;18.46;66.53
80648;BME280;70012;0.000;0.000;2023-07-20T06:36:30;100581.78;;;18.52;65.90
80648;BME280;70012;0.000;0.000;2023-07-20T06:38:56;100582.31;;;18.54;66.98
80648;BME280;70012;0.000;0.000;2023-07-20T06:41:26;100583.78;;;18.66;66.19
80648;BME280;70012;0.000;0.000;2023-07-20T06:43:55;100579.09;;;18.66;65.90
80648;BME280;70012;0.000;0.000;2023-07-20T06:46:27;100578.16;;;18.71;65.42
80648;BME280;70012;0.000;0.000;2023-07-20T06:48:54;100579.91;;;18.67;64.85
80648;BME280;70012;0.000;0.000;2023-07-20T06:51:24;100583.97;;;18.55;65.75
80648;BME280;70012;0.000;0.000;2023-07-20T06:53:51;100587.00;;;18.54;65.52
80648;BME280;70012;0.000;0.000;2023-07-20T06:56:18;100579.63;;;18.49;66.55
80648;BME280;70012;0.000;0.000;2023-07-20T06:58:48;100585.09;;;18.54;66.60
80648;BME280;70012;0.000;0.000;2023-07-20T07:01:15;100601.19;;;18.52;66.10
80648;BME280;70012;0.000;0.000;2023-07-20T07:03:43;100591.84;;;18.48;66.04
80648;BME280;70012;0.000;0.000;2023-07-20T07:06:10;100601.34;;;18.42;65.98
80648;BME280;70012;0.000;0.000;2023-07-20T07:08:37;100596.41;;;18.39;65.63
80648;BME280;70012;0.000;0.000;2023-07-20T07:11:04;100597.47;;;18.43;65.63
80648;BME280;70012;0.000;0.000;2023-07-20T07:13:31;100605.69;;;18.48;65.73
80648;BME280;70012;0.000;0.000;2023-07-20T07:15:58;100607.34;;;18.49;64.45
80648;BME280;70012;0.000;0.000;2023-07-20T07:18:25;100603.06;;;18.57;64.31
80648;BME280;70012;0.000;0.000;2023-07-20T07:20:53;100609.84;;;18.65;64.69
80648;BME280;70012;0.000;0.000;2023-07-20T07:23:20;100606.50;;;18.68;64.24
80648;BME280;70012;0.000;0.000;2023-07-20T07:25:47;100607.00;;;18.70;64.80
80648;BME280;70012;0.000;0.000;2023-07-20T07:28:14;100603.31;;;18.75;64.57
80648;BME280;70012;0.000;0.000;2023-07-20T07:30:41;100601.31;;;18.80;63.52
80648;BME280;70012;0.000;0.000;2023-07-20T07:33:08;100596.88;;;18.79;62.62
80648;BME280;70012;0.000;0.000;2023-07-20T07:35:36;100598.66;;;18.89;62.23
80648;BME280;70012;0.000;0.000;2023-07-20T07:38:03;100603.22;;;18.99;62.33
80648;BME280;70012;0.000;0.000;2023-07-20T07:40:50;100598.53;;;18.99;63.10
80648;BME280;70012;0.000;0.000;2023-07-20T07:43:17;100606.97;;;19.08;63.72
80648;BME280;70012;0.000;0.000;2023-07-20T07:45:43;100601.09;;;19.10;63.92
80648;BME280;70012;0.000;0.000;2023-07-20T07:48:10;100613.59;;;19.26;63.76
80648;BME280;70012;0.000;0.000;2023-07-20T07:50:38;100608.66;;;19.37;63.18
80648;BME280;70012;0.000;0.000;2023-07-20T07:53:07;100613.38;;;19.50;62.36
80648;BME280;70012;0.000;0.000;2023-07-20T07:55:35;100615.88;;;19.52;61.51
80648;BME280;70012;0.000;0.000;2023-07-20T07:58:01;100610.53;;;19.56;61.29
80648;BME280;70012;0.000;0.000;2023-07-20T08:00:28;100615.66;;;19.48;61.00
80648;BME280;70012;0.000;0.000;2023-07-20T08:02:55;100619.56;;;19.47;60.94
80648;BME280;70012;0.000;0.000;2023-07-20T08:05:22;100606.22;;;19.49;60.75
80648;BME280;70012;0.000;0.000;2023-07-20T08:07:48;100604.34;;;19.59;59.48
80648;BME280;70012;0.000;0.000;2023-07-20T08:10:15;100609.31;;;19.62;59.07
80648;BME280;70012;0.000;0.000;2023-07-20T08:12:41;100606.31;;;19.72;59.38
80648;BME280;70012;0.000;0.000;2023-07-20T08:15:10;100615.69;;;19.90;59.88
80648;BME280;70012;0.000;0.000;2023-07-20T08:17:37;100618.78;;;19.89;58.91
80648;BME280;70012;0.000;0.000;2023-07-20T08:20:04;100616.13;;;19.83;57.61
80648;BME280;70012;0.000;0.000;2023-07-20T08:22:32;100619.72;;;19.84;56.80
80648;BME280;70012;0.000;0.000;2023-07-20T08:24:59;100617.13;;;19.88;56.88
80648;BME280;70012;0.000;0.000;2023-07-20T08:27:26;100621.44;;;19.94;56.83
80648;BME280;70012;0.000;0.000;2023-07-20T08:32:20;100615.25;;;20.11;57.01
80648;BME280;70012;0.000;0.000;2023-07-20T08:34:47;100626.56;;;20.14;55.88
80648;BME280;70012;0.000;0.000;2023-07-20T08:37:14;100621.81;;;20.15;56.23
80648;BME280;70012;0.000;0.000;2023-07-20T08:39:40;100616.19;;;20.06;55.87
80648;BME280;70012;0.000;0.000;2023-07-20T08:42:07;100618.75;;;20.17;56.75
80648;BME280;70012;0.000;0.000;2023-07-20T08:44:35;100612.56;;;20.20;54.66
80648;BME280;70012;0.000;0.000;2023-07-20T08:47:04;100619.16;;;20.24;53.95
80648;BME280;70012;0.000;0.000;2023-07-20T08:49:34;100608.78;;;20.38;52.85
80648;BME280;70012;0.000;0.000;2023-07-20T08:52:01;100616.59;;;20.50;53.18
80648;BME280;70012;0.000;0.000;2023-07-20T08:54:30;100611.41;;;20.57;52.75
80648;BME280;70012;0.000;0.000;2023-07-20T08:57:04;100615.53;;;20.74;51.80
80648;BME280;70012;0.000;0.000;2023-07-20T08:59:32;100605.31;;;20.92;52.07
80648;BME280;70012;0.000;0.000;2023-07-20T09:01:59;100605.06;;;21.02;51.86
80648;BME280;70012;0.000;0.000;2023-07-20T09:04:26;100610.63;;;21.02;50.33
80648;BME280;70012;0.000;0.000;2023-07-20T09:06:53;100614.94;;;21.08;50.27
80648;BME280;70012;0.000;0.000;2023-07-20T09:09:20;100608.09;;;21.15;49.50
80648;BME280;70012;0.000;0.000;2023-07-20T09:11:49;100603.88;;;21.26;49.16
80648;BME280;70012;0.000;0.000;2023-07-20T09:14:16;100617.84;;;21.35;50.80
80648;BME280;70012;0.000;0.000;2023-07-20T09:16:52;100614.56;;;21.33;47.34
80648;BME280;70012;0.000;0.000;2023-07-20T09:19:19;100608.75;;;21.52;48.88
80648;BME280;70012;0.000;0.000;2023-07-20T09:21:49;100601.31;;;21.70;49.61
80648;BME280;70012;0.000;0.000;2023-07-20T09:24:18;100612.22;;;21.98;48.59
80648;BME280;70012;0.000;0.000;2023-07-20T09:26:46;100604.00;;;21.84;48.11
80648;BME280;70012;0.000;0.000;2023-07-20T09:29:20;100600.50;;;21.69;47.71
80648;BME280;70012;0.000;0.000;2023-07-20T09:32:00;100605.53;;;21.58;48.19
80648;BME280;70012;0.000;0.000;2023-07-20T09:34:30;100611.66;;;21.38;47.72
80648;BME280;70012;0.000;0.000;2023-07-20T09:37:03;100610.84;;;21.37;47.98
80648;BME280;70012;0.000;0.000;2023-07-20T09:39:31;100607.38;;;21.63;47.49
80648;BME280;70012;0.000;0.000;2023-07-20T09:42:01;100608.22;;;21.81;47.53
80648;BME280;70012;0.000;0.000;2023-07-20T09:44:31;100597.41;;;21.80;47.45
80648;BME280;70012;0.000;0.000;2023-07-20T09:47:03;100601.84;;;21.81;47.88
80648;BME280;70012;0.000;0.000;2023-07-20T09:49:30;100600.97;;;21.71;47.56
80648;BME280;70012;0.000;0.000;2023-07-20T09:52:17;100589.00;;;21.62;47.99
80648;BME280;70012;0.000;0.000;2023-07-20T09:54:48;100594.09;;;21.69;47.14
80648;BME280;70012;0.000;0.000;2023-07-20T09:57:14;100597.22;;;21.67;47.08
80648;BME280;70012;0.000;0.000;2023-07-20T09:59:42;100602.19;;;21.48;48.78
80648;BME280;70012;0.000;0.000;2023-07-20T10:02:19;100598.06;;;21.36;49.20
80648;BME280;70012;0.000;0.000;2023-07-20T10:04:48;100606.75;;;21.43;49.71
80648;BME280;70012;0.000;0.000;2023-07-20T10:07:19;100600.16;;;21.62;48.46
80648;BME280;70012;0.000;0.000;2023-07-20T10:09:48;100604.63;;;21.81;47.83
80648;BME280;70012;0.000;0.000;2023-07-20T10:12:16;100595.81;;;21.96;47.63
80648;BME280;70012;0.000;0.000;2023-07-20T10:14:50;100594.88;;;22.18;47.52
80648;BME280;70012;0.000;0.000;2023-07-20T10:17:19;100584.56;;;22.54;45.62
80648;BME280;70012;0.000;0.000;2023-07-20T10:19:50;100581.75;;;22.71;44.77
80648;BME280;70012;0.000;0.000;2023-07-20T10:22:25;100576.94;;;22.98;44.70
80648;BME280;70012;0.000;0.000;2023-07-20T10:24:53;100580.66;;;23.29;42.49
80648;BME280;70012;0.000;0.000;2023-07-20T10:27:20;100581.06;;;23.57;42.34
80648;BME280;70012;0.000;0.000;2023-07-20T10:29:48;100579.22;;;23.91;42.02
80648;BME280;70012;0.000;0.000;2023-07-20T10:32:15;100579.78;;;24.06;41.82
80648;BME280;70012;0.000;0.000;2023-07-20T10:34:41;100576.91;;;23.93;40.79
80648;BME280;70012;0.000;0.000;2023-07-20T10:37:08;100567.53;;;23.68;40.57
80648;BME280;70012;0.000;0.000;2023-07-20T10:39:35;100576.16;;;23.84;41.31
80648;BME280;70012;0.000;0.000;2023-07-20T10:44:31;100563.00;;;24.48;39.46
80648;BME280;70012;0.000;0.000;2023-07-20T10:47:01;100558.50;;;24.77;39.05
80648;BME280;70012;0.000;0.000;2023-07-20T10:49:33;100559.91;;;24.83;39.00
80648;BME280;70012;0.000;0.000;2023-07-20T10:52:04;100548.13;;;24.56;39.07
80648;BME280;70012;0.000;0.000;2023-07-20T10:57:22;100553.69;;;23.72;40.53
80648;BME280;70012;0.000;0.000;2023-07-20T10:59:49;100553.06;;;23.27;41.25
80648;BME280;70012;0.000;0.000;2023-07-20T11:02:18;100558.16;;;23.25;40.79
80648;BME280;70012;0.000;0.000;2023-07-20T11:04:46;100548.44;;;23.40;40.55
80648;BME280;70012;0.000;0.000;2023-07-20T11:07:35;100542.88;;;23.61;40.38
80648;BME280;70012;0.000;0.000;2023-07-20T11:10:13;100547.13;;;23.67;38.98
80648;BME280;70012;0.000;0.000;2023-07-20T11:18:28;100556.75;;;23.49;38.83
80648;BME280;70012;0.000;0.000;2023-07-20T11:20:55;100548.63;;;23.26;40.82
80648;BME280;70012;0.000;0.000;2023-07-20T11:23:22;100549.66;;;23.13;42.42
80648;BME280;70012;0.000;0.000;2023-07-20T11:25:49;100551.97;;;23.02;43.20
80648;BME280;70012;0.000;0.000;2023-07-20T11:28:16;100547.78;;;23.34;43.20
80648;BME280;70012;0.000;0.000;2023-07-20T11:30:43;100541.81;;;23.75;41.83
80648;BME280;70012;0.000;0.000;2023-07-20T11:33:10;100539.84;;;24.05;41.45
80648;BME280;70012;0.000;0.000;2023-07-20T11:35:44;100546.78;;;23.99;41.14
80648;BME280;70012;0.000;0.000;2023-07-20T11:38:13;100542.22;;;23.94;40.82
80648;BME280;70012;0.000;0.000;2023-07-20T11:40:46;100540.75;;;23.88;39.53
80648;BME280;70012;0.000;0.000;2023-07-20T11:43:14;100546.31;;;23.67;40.25
80648;BME280;70012;0.000;0.000;2023-07-20T11:45:44;100543.84;;;23.36;40.20
80648;BME280;70012;0.000;0.000;2023-07-20T11:48:17;100534.41;;;23.49;41.16
80648;BME280;70012;0.000;0.000;2023-07-20T11:50:44;100543.75;;;23.53;40.54
80648;BME280;70012;0.000;0.000;2023-07-20T11:53:11;100539.06;;;23.45;39.76
80648;BME280;70012;0.000;0.000;2023-07-20T11:55:40;100540.81;;;23.49;39.47
80648;BME280;70012;0.000;0.000;2023-07-20T11:58:08;100541.66;;;23.50;40.40
80648;BME280;70012;0.000;0.000;2023-07-20T12:00:38;100544.75;;;23.48;39.49
80648;BME280;70012;0.000;0.000;2023-07-20T12:03:06;100541.66;;;23.50;39.81
80648;BME280;70012;0.000;0.000;2023-07-20T12:05:34;100538.25;;;23.36;40.57
80648;BME280;70012;0.000;0.000;2023-07-20T12:08:21;100542.44;;;23.50;40.59
80648;BME280;70012;0.000;0.000;2023-07-20T12:10:48;100538.34;;;23.48;39.69
80648;BME280;70012;0.000;0.000;2023-07-20T12:13:15;100538.66;;;23.55;39.11
80648;BME280;70012;0.000;0.000;2023-07-20T12:15:43;100536.06;;;23.50;38.49
80648;BME280;70012;0.000;0.000;2023-07-20T12:18:09;100529.41;;;23.93;38.97
80648;BME280;70012;0.000;0.000;2023-07-20T12:20:37;100539.22;;;24.42;38.35
80648;BME280;70012;0.000;0.000;2023-07-20T12:23:08;100534.59;;;24.80;37.66
80648;BME280;70012;0.000;0.000;2023-07-20T12:25:40;100538.03;;;24.98;37.98
80648;BME280;70012;0.000;0.000;2023-07-20T12:28:08;100531.97;;;25.20;36.72
80648;BME280;70012;0.000;0.000;2023-07-20T12:30:37;100527.00;;;25.38;36.32
80648;BME280;70012;0.000;0.000;2023-07-20T12:33:04;100535.16;;;25.44;36.47
80648;BME280;70012;0.000;0.000;2023-07-20T12:35:31;100519.66;;;25.59;36.86
80648;BME280;70012;0.000;0.000;2023-07-20T12:37:58;100514.16;;;25.62;35.41
80648;BME280;70012;0.000;0.000;2023-07-20T12:40:25;100521.72;;;25.74;36.50
80648;BME280;70012;0.000;0.000;2023-07-20T12:42:52;100513.06;;;25.79;35.47
80648;BME280;70012;0.000;0.000;2023-07-20T12:45:18;100515.25;;;25.98;35.47
80648;BME280;70012;0.000;0.000;2023-07-20T12:47:45;100508.09;;;26.13;34.15
80648;BME280;70012;0.000;0.000;2023-07-20T12:50:12;100504.28;;;26.34;33.78
80648;BME280;70012;0.000;0.000;2023-07-20T12:52:40;100506.44;;;26.25;34.04
80648;BME280;70012;0.000;0.000;2023-07-20T12:55:07;100497.56;;;26.23;33.41
80648;BME280;70012;0.000;0.000;2023-07-20T12:57:35;100505.06;;;26.18;33.87
80648;BME280;70012;0.000;0.000;2023-07-20T13:00:06;100505.59;;;26.24;34.50
80648;BME280;70012;0.000;0.000;2023-07-20T13:02:38;100505.59;;;26.24;34.08
80648;BME280;70012;0.000;0.000;2023-07-20T13:05:05;100507.13;;;26.21;32.33
80648;BME280;70012;0.000;0.000;2023-07-20T13:07:36;100503.16;;;26.23;33.29
80648;BME280;70012;0.000;0.000;2023-07-20T13:10:06;100504.34;;;26.21;33.88
80648;BME280;70012;0.000;0.000;2023-07-20T13:12:34;100502.16;;;26.43;32.64
80648;BME280;70012;0.000;0.000;2023-07-20T13:15:03;100491.31;;;26.58;31.99
80648;BME280;70012;0.000;0.000;2023-07-20T13:17:33;100492.63;;;26.76;32.63
80648;BME280;70012;0.000;0.000;2023-07-20T13:20:00;100482.50;;;26.88;32.06
80648;BME280;70012;0.000;0.000;2023-07-20T13:22:26;100488.28;;;26.95;31.63